Time;durP1;ratioP1;P1;durP2;ratioP2;P2;SDS_P1;SDS_P2;PMS_P1;PMS_P2;Temp;Humidity;BMP_temperature;BMP_pressure;BME280_temperature;BME280_humidity;BME280_pressure;Samples;Min_cycle;Max_cycle;Signal;HPM_P1;HPM_P2
2023/10/04 00:00:45;;;;;;;11.45;10.45;;;;;;;;;;5005284;28;20037;-75
2023/10/04 00:03:11;;;;;;;11.43;10.05;;;;;;;;;;5025255;28;20040;-75
2023/10/04 00:05:37;;;;;;;11.90;10.70;;;;;;;;;;5005677;28;20037;-75
2023/10/04 00:08:03;;;;;;;11.50;10.45;;;;;;;;;;5005108;28;20042;-75
2023/10/04 00:10:28;;;;;;;12.98;11.10;;;;;;;;;;5008726;28;20568;-75
2023/10/04 00:12:54;;;;;;;11.27;10.48;;;;;;;;;;5006135;28;20120;-75
2023/10/04 00:15:21;;;;;;;11.70;10.70;;;;;;;;;;5002889;28;20045;-75
2023/10/04 00:17:47;;;;;;;11.25;10.32;;;;;;;;;;5008025;28;20060;-75
2023/10/04 00:20:16;;;;;;;11.88;10.88;;;;;;;;;;5007169;28;20577;-74
2023/10/04 00:22:43;;;;;;;12.05;10.80;;;;;;;;;;5002743;28;20060;-75
2023/10/04 00:25:20;;;;;;;11.82;10.95;;;;;;;;;;5006623;28;20046;-75
2023/10/04 00:27:50;;;;;;;11.40;10.55;;;;;;;;;;5004011;28;20049;-75
2023/10/04 00:30:18;;;;;;;11.98;10.98;;;;;;;;;;5004519;28;20045;-75
2023/10/04 00:32:47;;;;;;;11.90;10.82;;;;;;;;;;4999452;28;20046;-75
2023/10/04 00:35:19;;;;;;;12.13;11.13;;;;;;;;;;5002022;28;20038;-75
2023/10/04 00:37:48;;;;;;;11.52;10.48;;;;;;;;;;4998855;28;20065;-75
2023/10/04 00:40:19;;;;;;;12.43;11.15;;;;;;;;;;5000181;28;20042;-75
2023/10/04 00:42:49;;;;;;;11.02;10.23;;;;;;;;;;5017037;28;20054;-74
2023/10/04 00:45:19;;;;;;;11.05;10.25;;;;;;;;;;4999921;28;20112;-75
2023/10/04 00:47:47;;;;;;;11.88;10.73;;;;;;;;;;5001751;28;20994;-75
2023/10/04 00:50:25;;;;;;;12.35;11.35;;;;;;;;;;4985404;28;20113;-75
2023/10/04 00:53:01;;;;;;;12.07;10.82;;;;;;;;;;4997569;28;20034;-75
2023/10/04 00:55:27;;;;;;;11.93;10.98;;;;;;;;;;5001628;28;20096;-75
2023/10/04 00:57:54;;;;;;;12.30;11.13;;;;;;;;;;4998242;28;20067;-75
2023/10/04 01:00:24;;;;;;;12.10;10.35;;;;;;;;;;5005343;28;20124;-75
2023/10/04 01:02:50;;;;;;;11.23;10.38;;;;;;;;;;5008614;28;20041;-75
2023/10/04 01:05:16;;;;;;;12.00;11.00;;;;;;;;;;4999326;28;20037;-75
2023/10/04 01:07:43;;;;;;;11.88;10.70;;;;;;;;;;5001184;28;20042;-75
2023/10/04 01:10:16;;;;;;;13.30;11.15;;;;;;;;;;5000319;28;20104;-75
2023/10/04 01:12:45;;;;;;;12.02;11.10;;;;;;;;;;5004855;28;20112;-75
2023/10/04 01:15:26;;;;;;;11.98;11.07;;;;;;;;;;5004040;28;20061;-75
2023/10/04 01:17:56;;;;;;;12.20;10.90;;;;;;;;;;5001322;28;20403;-75
2023/10/04 01:20:25;;;;;;;12.38;11.27;;;;;;;;;;5003781;28;20649;-75
2023/10/04 01:22:51;;;;;;;12.27;11.27;;;;;;;;;;5001908;28;20030;-76
2023/10/04 01:25:18;;;;;;;11.90;10.82;;;;;;;;;;5005501;28;20564;-75
2023/10/04 01:27:45;;;;;;;11.40;10.40;;;;;;;;;;5001122;28;20030;-75
2023/10/04 01:30:11;;;;;;;12.82;10.85;;;;;;;;;;5002785;28;20204;-75
2023/10/04 01:32:37;;;;;;;11.63;10.73;;;;;;;;;;4999244;28;20037;-76
2023/10/04 01:35:08;;;;;;;11.60;10.70;;;;;;;;;;5000957;28;21764;-76
2023/10/04 01:37:37;;;;;;;11.93;11.05;;;;;;;;;;5018446;28;20038;-76
2023/10/04 01:40:06;;;;;;;12.00;11.10;;;;;;;;;;5008199;28;20050;-76
2023/10/04 01:42:31;;;;;;;12.73;11.35;;;;;;;;;;5001108;28;20037;-76
2023/10/04 01:44:57;;;;;;;12.30;11.20;;;;;;;;;;5003910;28;20046;-76
2023/10/04 01:47:24;;;;;;;12.00;10.98;;;;;;;;;;4999135;28;20440;-76
2023/10/04 01:49:50;;;;;;;11.60;10.80;;;;;;;;;;5005459;28;20045;-76
2023/10/04 01:52:16;;;;;;;12.27;11.27;;;;;;;;;;4995546;28;20029;-75
2023/10/04 01:54:42;;;;;;;11.90;11.00;;;;;;;;;;5001139;28;20052;-76
2023/10/04 01:57:07;;;;;;;12.30;11.40;;;;;;;;;;5004151;28;20110;-76
2023/10/04 01:59:33;;;;;;;12.13;11.13;;;;;;;;;;5003509;28;20065;-76
2023/10/04 02:01:59;;;;;;;12.38;11.32;;;;;;;;;;4990061;28;20101;-76
2023/10/04 02:04:25;;;;;;;12.05;11.05;;;;;;;;;;4999087;28;20658;-76
2023/10/04 02:06:50;;;;;;;12.00;10.88;;;;;;;;;;4996617;28;20034;-76
2023/10/04 02:09:16;;;;;;;12.15;11.25;;;;;;;;;;5016306;28;20037;-76
2023/10/04 02:11:43;;;;;;;11.77;10.88;;;;;;;;;;4996574;28;20034;-75
2023/10/04 02:14:11;;;;;;;11.68;10.70;;;;;;;;;;4961449;28;20120;-75
2023/10/04 02:16:37;;;;;;;11.60;10.80;;;;;;;;;;5001295;28;20423;-75
2023/10/04 02:19:03;;;;;;;12.50;11.38;;;;;;;;;;5004282;28;20046;-75
2023/10/04 02:21:28;;;;;;;11.93;11.00;;;;;;;;;;4999650;28;20037;-75
2023/10/04 02:23:54;;;;;;;12.43;11.32;;;;;;;;;;5000431;28;20038;-75
2023/10/04 02:26:22;;;;;;;11.80;10.88;;;;;;;;;;4997473;28;20040;-75
2023/10/04 02:28:51;;;;;;;11.88;10.88;;;;;;;;;;4999400;28;20073;-75
2023/10/04 02:31:19;;;;;;;12.17;11.17;;;;;;;;;;4999804;28;20061;-75
2023/10/04 02:33:47;;;;;;;12.63;11.63;;;;;;;;;;4993185;28;20327;-76
2023/10/04 02:36:12;;;;;;;12.70;11.35;;;;;;;;;;4997200;28;20029;-75
2023/10/04 02:38:38;;;;;;;11.68;10.68;;;;;;;;;;4999173;28;20029;-75
2023/10/04 02:41:10;;;;;;;11.50;10.38;;;;;;;;;;4976248;28;20856;-75
2023/10/04 02:43:40;;;;;;;12.00;11.00;;;;;;;;;;4978180;28;20111;-76
2023/10/04 02:46:06;;;;;;;11.75;10.75;;;;;;;;;;4992276;28;20107;-76
2023/10/04 02:48:32;;;;;;;11.60;10.68;;;;;;;;;;5001858;28;20124;-76
2023/10/04 02:50:58;;;;;;;11.68;10.68;;;;;;;;;;4997999;28;20060;-76
2023/10/04 02:53:27;;;;;;;12.63;11.30;;;;;;;;;;5003853;28;20038;-76
2023/10/04 02:55:54;;;;;;;11.57;10.57;;;;;;;;;;4998794;28;20042;-76
2023/10/04 02:58:21;;;;;;;11.85;10.82;;;;;;;;;;4994540;28;20064;-76
2023/10/04 03:00:49;;;;;;;11.80;10.80;;;;;;;;;;4990898;28;20118;-76
2023/10/04 03:03:22;;;;;;;12.35;11.35;;;;;;;;;;5012188;28;20069;-75
2023/10/04 03:05:54;;;;;;;12.88;11.68;;;;;;;;;;5000957;28;20037;-76
2023/10/04 03:08:20;;;;;;;12.35;11.25;;;;;;;;;;5009416;28;20519;-76
2023/10/04 03:10:50;;;;;;;12.40;11.27;;;;;;;;;;4999909;28;20037;-76
2023/10/04 03:13:22;;;;;;;12.30;11.10;;;;;;;;;;5021835;28;20472;-76
2023/10/04 03:15:52;;;;;;;12.57;11.27;;;;;;;;;;5000802;28;20112;-76
2023/10/04 03:18:20;;;;;;;12.20;11.15;;;;;;;;;;5000848;28;20053;-76
2023/10/04 03:21:16;;;;;;;11.55;10.70;;;;;;;;;;5003255;28;20176;-76
2023/10/04 03:23:42;;;;;;;12.25;11.10;;;;;;;;;;4992791;28;20068;-76
2023/10/04 03:26:16;;;;;;;12.40;11.32;;;;;;;;;;5015070;28;20030;-75
2023/10/04 03:28:47;;;;;;;12.30;11.25;;;;;;;;;;4985795;28;20092;-75
2023/10/04 03:31:14;;;;;;;12.85;11.63;;;;;;;;;;5000285;28;20037;-76
2023/10/04 03:33:45;;;;;;;12.40;11.20;;;;;;;;;;4990965;28;20092;-75
2023/10/04 03:36:18;;;;;;;12.50;11.50;;;;;;;;;;4999221;28;20121;-75
2023/10/04 03:38:49;;;;;;;13.27;12.05;;;;;;;;;;5001038;28;20049;-76
2023/10/04 03:41:18;;;;;;;13.23;12.00;;;;;;;;;;5017101;28;20125;-75
2023/10/04 03:43:44;;;;;;;11.70;10.70;;;;;;;;;;5007249;28;20575;-76
2023/10/04 03:46:20;;;;;;;12.13;11.02;;;;;;;;;;5003585;28;20061;-76
2023/10/04 03:48:58;;;;;;;12.27;11.38;;;;;;;;;;5008889;28;20034;-75
2023/10/04 03:51:26;;;;;;;12.52;11.57;;;;;;;;;;5012808;28;20037;-75
2023/10/04 03:53:55;;;;;;;13.40;12.40;;;;;;;;;;5010806;28;20522;-76
2023/10/04 03:56:25;;;;;;;13.63;12.40;;;;;;;;;;5027290;28;20045;-76
2023/10/04 03:58:51;;;;;;;13.98;12.65;;;;;;;;;;5002621;28;20053;-76
2023/10/04 04:01:17;;;;;;;13.40;12.20;;;;;;;;;;5000169;28;20688;-76
2023/10/04 04:03:44;;;;;;;16.42;11.95;;;;;;;;;;5012973;28;20034;-76
2023/10/04 04:06:11;;;;;;;13.40;12.40;;;;;;;;;;5013194;28;20034;-76
2023/10/04 04:08:37;;;;;;;13.68;12.57;;;;;;;;;;5012012;28;20044;-76
2023/10/04 04:11:05;;;;;;;13.63;12.32;;;;;;;;;;4995596;28;20042;-76
2023/10/04 04:13:31;;;;;;;14.10;12.52;;;;;;;;;;5017139;28;20039;-76
2023/10/04 04:15:57;;;;;;;13.93;12.70;;;;;;;;;;5012155;28;20041;-76
2023/10/04 04:18:25;;;;;;;14.52;13.18;;;;;;;;;;5008587;28;20511;-76
2023/10/04 04:20:53;;;;;;;13.33;12.23;;;;;;;;;;4971913;28;20034;-76
2023/10/04 04:23:21;;;;;;;13.88;12.60;;;;;;;;;;4996646;28;20042;-76
2023/10/04 04:25:48;;;;;;;13.73;12.40;;;;;;;;;;4998446;28;20079;-76
2023/10/04 04:28:17;;;;;;;13.77;12.35;;;;;;;;;;4993911;28;20122;-76
2023/10/04 04:30:43;;;;;;;13.88;12.63;;;;;;;;;;5002728;28;20501;-75
2023/10/04 04:33:10;;;;;;;13.15;12.13;;;;;;;;;;5011408;28;20042;-76
2023/10/04 04:38:16;;;;;;;13.77;12.57;;;;;;;;;;4999684;28;20037;-76
2023/10/04 04:40:46;;;;;;;13.23;12.13;;;;;;;;;;5010704;28;20033;-76
2023/10/04 04:45:56;;;;;;;14.05;12.85;;;;;;;;;;5002384;28;20400;-76
2023/10/04 04:48:36;;;;;;;13.63;12.48;;;;;;;;;;5007880;28;20101;-75
2023/10/04 04:53:34;;;;;;;13.93;12.70;;;;;;;;;;5004290;28;20037;-75
2023/10/04 04:56:01;;;;;;;13.70;12.60;;;;;;;;;;5007930;28;20446;-75
2023/10/04 04:58:28;;;;;;;13.93;12.55;;;;;;;;;;5002284;28;20099;-76
2023/10/04 05:01:02;;;;;;;14.13;12.85;;;;;;;;;;4986113;28;20033;-76
2023/10/04 05:03:29;;;;;;;14.32;13.15;;;;;;;;;;5000570;28;20048;-76
2023/10/04 05:05:55;;;;;;;16.63;13.48;;;;;;;;;;5003724;28;20033;-76
2023/10/04 05:08:22;;;;;;;16.67;13.50;;;;;;;;;;4997204;28;20042;-76
2023/10/04 05:10:51;;;;;;;16.08;12.73;;;;;;;;;;4996060;28;20128;-76
2023/10/04 05:13:21;;;;;;;13.77;12.63;;;;;;;;;;5021045;28;20662;-76
2023/10/04 05:15:49;;;;;;;14.07;12.88;;;;;;;;;;5002973;28;20514;-76
2023/10/04 05:18:17;;;;;;;13.48;12.13;;;;;;;;;;5003485;28;20097;-76
2023/10/04 05:20:54;;;;;;;13.38;12.27;;;;;;;;;;5002984;28;20061;-76
2023/10/04 05:23:24;;;;;;;14.52;13.15;;;;;;;;;;5020381;28;20515;-77
2023/10/04 05:25:52;;;;;;;14.23;12.82;;;;;;;;;;5000040;28;20037;-76
2023/10/04 05:28:18;;;;;;;13.18;12.00;;;;;;;;;;5001469;28;20034;-76
2023/10/04 05:30:45;;;;;;;13.35;12.32;;;;;;;;;;4997596;28;20030;-77
2023/10/04 05:33:15;;;;;;;13.27;12.13;;;;;;;;;;5003262;28;20102;-76
2023/10/04 05:35:42;;;;;;;13.68;12.30;;;;;;;;;;4997822;28;20038;-77
2023/10/04 05:38:08;;;;;;;13.52;12.43;;;;;;;;;;4997597;28;20494;-76
2023/10/04 05:40:35;;;;;;;14.27;12.98;;;;;;;;;;5001150;28;20038;-76
2023/10/04 05:43:03;;;;;;;13.38;12.25;;;;;;;;;;5004019;28;20042;-75
2023/10/04 05:45:28;;;;;;;13.35;12.00;;;;;;;;;;5000009;28;20087;-76
2023/10/04 05:47:55;;;;;;;13.50;12.23;;;;;;;;;;5001805;28;20042;-76
2023/10/04 05:50:21;;;;;;;14.02;12.60;;;;;;;;;;5001301;28;20082;-76
2023/10/04 05:52:48;;;;;;;13.13;12.05;;;;;;;;;;5002880;28;20542;-76
2023/10/04 05:55:16;;;;;;;13.90;12.80;;;;;;;;;;5007776;28;20491;-76
2023/10/04 05:57:46;;;;;;;13.00;12.07;;;;;;;;;;5004616;28;20045;-76
2023/10/04 06:00:24;;;;;;;14.18;12.85;;;;;;;;;;5000841;28;20588;-76
2023/10/04 06:03:06;;;;;;;13.07;11.98;;;;;;;;;;4999091;28;20045;-76
2023/10/04 06:05:38;;;;;;;13.40;12.30;;;;;;;;;;4990683;28;20118;-76
2023/10/04 06:08:21;;;;;;;14.02;12.77;;;;;;;;;;4997393;28;20804;-76
2023/10/04 06:10:48;;;;;;;13.25;12.35;;;;;;;;;;4998873;28;20133;-76
2023/10/04 06:13:17;;;;;;;13.38;12.30;;;;;;;;;;5000514;28;20061;-77
2023/10/04 06:15:45;;;;;;;14.35;13.07;;;;;;;;;;5002394;28;20060;-76
2023/10/04 06:18:12;;;;;;;14.13;12.93;;;;;;;;;;5000840;28;20030;-76
2023/10/04 06:20:38;;;;;;;14.05;12.70;;;;;;;;;;5001024;28;20120;-77
2023/10/04 06:23:05;;;;;;;15.00;13.50;;;;;;;;;;4999302;28;20046;-76
2023/10/04 06:25:34;;;;;;;15.05;13.52;;;;;;;;;;4996138;28;20549;-77
2023/10/04 06:28:03;;;;;;;14.90;13.45;;;;;;;;;;5000431;28;20121;-77
2023/10/04 06:30:32;;;;;;;16.33;13.45;;;;;;;;;;5020855;28;20048;-77
2023/10/04 06:33:03;;;;;;;14.60;13.18;;;;;;;;;;5002491;28;20414;-77
2023/10/04 06:35:29;;;;;;;14.88;13.45;;;;;;;;;;5001360;28;20124;-77
2023/10/04 06:37:57;;;;;;;14.75;13.43;;;;;;;;;;5003793;28;20121;-77
2023/10/04 06:40:24;;;;;;;15.10;13.70;;;;;;;;;;5005716;28;20080;-77
2023/10/04 06:42:52;;;;;;;14.25;12.77;;;;;;;;;;5004866;28;20061;-77
2023/10/04 06:45:19;;;;;;;14.02;12.90;;;;;;;;;;5002664;28;20380;-76
2023/10/04 06:47:47;;;;;;;14.90;13.48;;;;;;;;;;5009888;28;20029;-77
2023/10/04 06:50:28;;;;;;;14.23;13.02;;;;;;;;;;5006155;28;20116;-77
2023/10/04 06:52:56;;;;;;;14.90;13.38;;;;;;;;;;5002989;28;20037;-77
2023/10/04 06:55:22;;;;;;;14.65;13.15;;;;;;;;;;5006170;28;20052;-77
2023/10/04 06:57:49;;;;;;;15.88;14.18;;;;;;;;;;5005191;28;20495;-77
2023/10/04 07:00:20;;;;;;;14.80;13.07;;;;;;;;;;5005933;28;20459;-77
2023/10/04 07:02:49;;;;;;;13.85;12.65;;;;;;;;;;5004907;28;20030;-77
2023/10/04 07:05:19;;;;;;;13.80;12.50;;;;;;;;;;5007669;28;20041;-76
2023/10/04 07:07:49;;;;;;;13.15;12.05;;;;;;;;;;5004963;28;20025;-77
2023/10/04 07:10:15;;;;;;;12.85;11.95;;;;;;;;;;5000833;28;20129;-76
2023/10/04 07:12:45;;;;;;;12.95;11.85;;;;;;;;;;5020548;28;20083;-76
2023/10/04 07:15:13;;;;;;;13.80;12.63;;;;;;;;;;5016067;28;20151;-76
2023/10/04 07:17:40;;;;;;;12.80;11.63;;;;;;;;;;5014511;28;20029;-76
2023/10/04 07:20:07;;;;;;;12.77;11.77;;;;;;;;;;5015542;28;20039;-75
2023/10/04 07:22:36;;;;;;;12.52;11.52;;;;;;;;;;5020576;28;20056;-75
2023/10/04 07:25:02;;;;;;;12.70;11.60;;;;;;;;;;5015819;28;20073;-75
2023/10/04 07:27:27;;;;;;;13.10;11.75;;;;;;;;;;5007630;28;20030;-76
2023/10/04 07:29:53;;;;;;;12.70;11.70;;;;;;;;;;5003217;28;20036;-77
2023/10/04 07:32:20;;;;;;;12.65;11.43;;;;;;;;;;4999433;28;20088;-76
2023/10/04 07:34:46;;;;;;;12.50;11.55;;;;;;;;;;5001193;28;20748;-76
2023/10/04 07:37:12;;;;;;;11.98;11.07;;;;;;;;;;5004922;28;20050;-76
2023/10/04 07:39:37;;;;;;;12.07;11.10;;;;;;;;;;5002081;28;20488;-76
2023/10/04 07:42:03;;;;;;;11.88;10.98;;;;;;;;;;5004285;28;20083;-76
2023/10/04 07:44:31;;;;;;;12.57;11.50;;;;;;;;;;5001669;28;20117;-76
2023/10/04 07:47:00;;;;;;;11.70;10.67;;;;;;;;;;4998374;28;20113;-76
2023/10/04 07:49:29;;;;;;;12.52;11.30;;;;;;;;;;5002644;28;20299;-77
2023/10/04 07:51:56;;;;;;;11.90;10.68;;;;;;;;;;5004629;28;20046;-77
2023/10/04 07:54:22;;;;;;;11.52;10.65;;;;;;;;;;4999089;28;20116;-77
2023/10/04 07:56:51;;;;;;;12.02;11.05;;;;;;;;;;4997234;28;20084;-77
2023/10/04 07:59:17;;;;;;;11.82;10.57;;;;;;;;;;5005886;28;20057;-77
2023/10/04 08:01:43;;;;;;;12.00;10.82;;;;;;;;;;5006360;28;20042;-76
2023/10/04 08:04:11;;;;;;;14.30;10.48;;;;;;;;;;5004056;28;20052;-76
2023/10/04 08:06:37;;;;;;;11.20;10.07;;;;;;;;;;5001353;28;20113;-76
2023/10/04 08:09:06;;;;;;;11.32;10.10;;;;;;;;;;5004516;28;20046;-76
2023/10/04 08:11:33;;;;;;;10.35;9.52;;;;;;;;;;5001551;28;20034;-76
2023/10/04 08:14:07;;;;;;;11.15;9.93;;;;;;;;;;5009700;28;20134;-76
2023/10/04 08:16:34;;;;;;;11.07;10.13;;;;;;;;;;5005043;28;20120;-76
2023/10/04 08:19:01;;;;;;;10.02;9.27;;;;;;;;;;5011243;28;20049;-76
2023/10/04 08:21:28;;;;;;;10.15;9.25;;;;;;;;;;5005536;28;20121;-76
2023/10/04 08:23:54;;;;;;;10.18;9.35;;;;;;;;;;5008450;28;20044;-76
2023/10/04 08:26:22;;;;;;;10.73;9.65;;;;;;;;;;5003960;28;20499;-77
2023/10/04 08:28:48;;;;;;;10.63;9.68;;;;;;;;;;5004149;28;20034;-77
2023/10/04 08:31:16;;;;;;;9.85;9.18;;;;;;;;;;5005500;28;20038;-76
2023/10/04 08:33:43;;;;;;;10.40;9.40;;;;;;;;;;5003200;28;20034;-76
2023/10/04 08:36:16;;;;;;;10.57;9.57;;;;;;;;;;5004231;28;20044;-77
2023/10/04 08:38:42;;;;;;;11.55;9.30;;;;;;;;;;5006619;28;20258;-77
2023/10/04 08:41:08;;;;;;;10.02;9.13;;;;;;;;;;5006526;28;20099;-76
2023/10/04 08:43:34;;;;;;;10.82;9.02;;;;;;;;;;5007872;28;20427;-76
2023/10/04 08:46:02;;;;;;;9.73;8.77;;;;;;;;;;5003261;28;20035;-75
2023/10/04 08:48:29;;;;;;;10.10;9.20;;;;;;;;;;5002217;28;20053;-76
2023/10/04 08:51:08;;;;;;;10.90;9.48;;;;;;;;;;5004954;28;20084;-76
2023/10/04 08:53:44;;;;;;;;;;;;;;;;;;5002529;28;20033;-76
2023/10/04 08:56:14;;;;;;;10.80;9.50;;;;;;;;;;5004691;28;19924;-76
2023/10/04 08:58:43;;;;;;;10.32;9.35;;;;;;;;;;5012252;28;20041;-76
2023/10/04 09:01:11;;;;;;;;;;;;;;;;;;5004556;28;20570;-76
2023/10/04 09:03:40;;;;;;;9.57;8.88;;;;;;;;;;5005608;28;20540;-75
2023/10/04 09:06:11;;;;;;;10.20;9.20;;;;;;;;;;5027959;28;20060;-76
2023/10/04 09:08:41;;;;;;;9.38;8.68;;;;;;;;;;5001465;28;20038;-76
2023/10/04 09:11:10;;;;;;;10.20;9.13;;;;;;;;;;5006547;28;20030;-76
2023/10/04 09:13:42;;;;;;;10.30;9.30;;;;;;;;;;5007179;28;20131;-76
2023/10/04 09:16:31;;;;;;;9.82;8.80;;;;;;;;;;4999061;28;20073;-76
2023/10/04 09:19:14;;;;;;;11.02;9.45;;;;;;;;;;4995611;28;20045;-76
2023/10/04 09:21:41;;;;;;;9.77;8.95;;;;;;;;;;5001926;28;20022;-76
2023/10/04 09:24:09;;;;;;;9.52;8.52;;;;;;;;;;5003301;28;20160;-76
2023/10/04 09:26:36;;;;;;;9.32;8.60;;;;;;;;;;5005750;28;20021;-76
2023/10/04 09:29:04;;;;;;;10.02;9.10;;;;;;;;;;5016113;28;20044;-76
2023/10/04 09:31:44;;;;;;;11.50;9.40;;;;;;;;;;5031830;28;20053;-75
2023/10/04 09:34:13;;;;;;;9.43;8.63;;;;;;;;;;5021786;28;20116;-76
2023/10/04 09:36:40;;;;;;;10.52;9.55;;;;;;;;;;5026847;28;20069;-78
2023/10/04 09:39:08;;;;;;;10.77;9.75;;;;;;;;;;5025417;28;20049;-75
2023/10/04 09:41:47;;;;;;;9.93;8.98;;;;;;;;;;5007030;28;20488;-76
2023/10/04 09:44:35;;;;;;;;;;;;;;;;;;5004168;28;20025;-75
2023/10/04 09:47:02;;;;;;;10.65;9.38;;;;;;;;;;5006197;28;19996;-76
2023/10/04 09:49:34;;;;;;;10.15;8.93;;;;;;;;;;5005464;28;20111;-76
2023/10/04 09:52:00;;;;;;;11.40;9.25;;;;;;;;;;5007656;28;20057;-76
2023/10/04 09:54:30;;;;;;;10.93;9.95;;;;;;;;;;5009142;28;20044;-75
2023/10/04 09:56:56;;;;;;;10.70;9.65;;;;;;;;;;5010431;28;20045;-76
2023/10/04 09:59:23;;;;;;;9.90;8.90;;;;;;;;;;5009479;28;20036;-76
2023/10/04 10:01:55;;;;;;;10.10;9.13;;;;;;;;;;5008328;28;20025;-76
2023/10/04 10:04:28;;;;;;;10.50;9.25;;;;;;;;;;5004436;28;20080;-76
2023/10/04 10:07:10;;;;;;;8.65;7.90;;;;;;;;;;5012253;28;20025;-75
2023/10/04 10:10:02;;;;;;;8.25;7.57;;;;;;;;;;5002789;28;20038;-75
2023/10/04 10:12:30;;;;;;;10.10;9.10;;;;;;;;;;5004171;28;20041;-75
2023/10/04 10:15:03;;;;;;;11.23;9.13;;;;;;;;;;5013404;28;20026;-75
2023/10/04 10:17:30;;;;;;;9.85;8.57;;;;;;;;;;5006462;28;20629;-74
2023/10/04 10:19:57;;;;;;;9.20;8.50;;;;;;;;;;5007253;28;20057;-75
2023/10/04 10:22:22;;;;;;;10.27;9.25;;;;;;;;;;4982839;28;20177;-74
2023/10/04 10:24:57;;;;;;;9.15;8.40;;;;;;;;;;5012973;28;20120;-75
2023/10/04 10:27:28;;;;;;;11.43;8.32;;;;;;;;;;5006173;28;20037;-75
2023/10/04 10:29:59;;;;;;;9.32;8.45;;;;;;;;;;5004783;28;20030;-75
2023/10/04 10:32:25;;;;;;;9.43;8.60;;;;;;;;;;5004104;28;20029;-75
2023/10/04 10:34:57;;;;;;;7.88;7.13;;;;;;;;;;5005018;28;20037;-75
2023/10/04 10:37:24;;;;;;;8.90;8.23;;;;;;;;;;5004100;28;20056;-75
2023/10/04 10:39:56;;;;;;;8.57;7.93;;;;;;;;;;5008833;28;20061;-75
2023/10/04 10:42:23;;;;;;;11.85;8.60;;;;;;;;;;5013543;28;20123;-74
2023/10/04 10:44:50;;;;;;;9.70;8.70;;;;;;;;;;5021801;28;20026;-74
2023/10/04 10:47:20;;;;;;;9.60;8.68;;;;;;;;;;5019401;28;20029;-76
2023/10/04 10:49:58;;;;;;;10.00;9.05;;;;;;;;;;5000853;28;20122;-74
2023/10/04 10:52:38;;;;;;;9.85;9.10;;;;;;;;;;5000069;28;20095;-74
2023/10/04 10:55:06;;;;;;;10.65;9.77;;;;;;;;;;5000862;28;20116;-75
2023/10/04 10:57:36;;;;;;;10.82;9.90;;;;;;;;;;5000074;28;20038;-74
2023/10/04 11:00:23;;;;;;;11.00;10.00;;;;;;;;;;5007135;28;20068;-74
2023/10/04 11:02:53;;;;;;;10.50;9.70;;;;;;;;;;5003041;28;20108;-74
2023/10/04 11:05:20;;;;;;;10.75;9.85;;;;;;;;;;5003386;28;20112;-74
2023/10/04 11:07:52;;;;;;;10.80;9.80;;;;;;;;;;5005539;28;20046;-74
2023/10/04 11:10:23;;;;;;;10.45;9.45;;;;;;;;;;5003309;28;20042;-75
2023/10/04 11:12:54;;;;;;;10.57;9.82;;;;;;;;;;5004841;28;20042;-74
2023/10/04 11:15:23;;;;;;;10.90;9.98;;;;;;;;;;4999427;28;20038;-75
2023/10/04 11:17:50;;;;;;;11.63;10.52;;;;;;;;;;5006166;28;20350;-75
2023/10/04 11:20:20;;;;;;;11.05;10.05;;;;;;;;;;5002870;28;20040;-75
2023/10/04 11:22:49;;;;;;;11.50;10.30;;;;;;;;;;5008010;28;20029;-74
2023/10/04 11:25:15;;;;;;;10.30;9.50;;;;;;;;;;5007680;28;20132;-75
2023/10/04 11:27:46;;;;;;;10.60;9.50;;;;;;;;;;5011581;28;20088;-75
2023/10/04 11:30:14;;;;;;;10.27;9.48;;;;;;;;;;5006154;28;20029;-74
2023/10/04 11:32:41;;;;;;;9.73;8.93;;;;;;;;;;4998748;28;20119;-75
2023/10/04 11:35:08;;;;;;;10.10;9.40;;;;;;;;;;5005804;28;20034;-74
2023/10/04 11:37:44;;;;;;;10.13;9.25;;;;;;;;;;5010281;28;20091;-74
2023/10/04 11:40:16;;;;;;;10.48;9.60;;;;;;;;;;5004622;28;20044;-74
2023/10/04 11:42:42;;;;;;;11.48;10.48;;;;;;;;;;5007843;28;20233;-74
2023/10/04 11:45:17;;;;;;;11.23;10.20;;;;;;;;;;5009150;28;20550;-74
2023/10/04 11:47:45;;;;;;;10.90;10.00;;;;;;;;;;5011360;28;20108;-75
2023/10/04 11:50:11;;;;;;;10.52;9.75;;;;;;;;;;5002825;28;20622;-75
2023/10/04 11:52:39;;;;;;;10.38;9.50;;;;;;;;;;4995685;28;20041;-74
2023/10/04 11:55:23;;;;;;;11.20;10.10;;;;;;;;;;5007549;28;20044;-75
2023/10/04 11:57:49;;;;;;;10.90;10.10;;;;;;;;;;5004115;28;20029;-74
2023/10/04 12:00:26;;;;;;;12.50;10.30;;;;;;;;;;5003473;28;20044;-74
2023/10/04 12:02:52;;;;;;;11.10;10.10;;;;;;;;;;5009358;28;20083;-74
2023/10/04 12:05:18;;;;;;;10.60;9.70;;;;;;;;;;5004819;28;20029;-74
2023/10/04 12:07:43;;;;;;;11.30;10.40;;;;;;;;;;5002462;28;20429;-75
2023/10/04 12:10:09;;;;;;;11.65;10.60;;;;;;;;;;5007326;28;20072;-75
2023/10/04 12:12:37;;;;;;;11.63;10.60;;;;;;;;;;5006382;28;20062;-74
2023/10/04 12:15:07;;;;;;;11.93;10.93;;;;;;;;;;5004658;28;20042;-74
2023/10/04 12:17:34;;;;;;;11.25;10.25;;;;;;;;;;5002166;28;20065;-74
2023/10/04 12:20:04;;;;;;;11.07;10.00;;;;;;;;;;5010739;28;20048;-74
2023/10/04 12:22:30;;;;;;;11.07;10.18;;;;;;;;;;4999173;28;20038;-74
2023/10/04 12:24:56;;;;;;;11.38;10.38;;;;;;;;;;5008032;28;20045;-74
2023/10/04 12:27:24;;;;;;;11.52;10.50;;;;;;;;;;5004814;28;20034;-74
2023/10/04 12:29:50;;;;;;;11.73;10.63;;;;;;;;;;5009159;28;20613;-74
2023/10/04 12:32:18;;;;;;;11.40;10.27;;;;;;;;;;5022927;28;20033;-74
2023/10/04 12:34:45;;;;;;;11.23;10.43;;;;;;;;;;5015174;28;20061;-75
2023/10/04 12:37:12;;;;;;;11.48;10.40;;;;;;;;;;5014065;28;20032;-73
2023/10/04 12:39:38;;;;;;;11.13;10.23;;;;;;;;;;5019318;28;20038;-74
2023/10/04 12:42:04;;;;;;;11.48;10.50;;;;;;;;;;5014180;28;20487;-75
2023/10/04 12:44:31;;;;;;;10.80;10.00;;;;;;;;;;4997704;28;20048;-75
2023/10/04 12:46:59;;;;;;;11.40;10.50;;;;;;;;;;5010790;28;20060;-74
2023/10/04 12:49:26;;;;;;;12.02;11.00;;;;;;;;;;5001333;28;20096;-74
2023/10/04 12:51:52;;;;;;;10.95;10.25;;;;;;;;;;5003790;28;20041;-74
2023/10/04 12:54:23;;;;;;;11.60;10.80;;;;;;;;;;5003158;28;20036;-74
2023/10/04 12:56:51;;;;;;;11.20;10.25;;;;;;;;;;5007270;28;20471;-75
2023/10/04 12:59:19;;;;;;;11.90;10.65;;;;;;;;;;4999874;28;20075;-75
2023/10/04 13:01:45;;;;;;;11.35;10.45;;;;;;;;;;5002642;28;20040;-75
2023/10/04 13:04:11;;;;;;;11.07;10.30;;;;;;;;;;5010046;28;20159;-74
2023/10/04 13:06:37;;;;;;;11.13;10.07;;;;;;;;;;5004021;28;20121;-74
2023/10/04 13:09:04;;;;;;;11.25;10.10;;;;;;;;;;5005717;28;20427;-74
2023/10/04 13:11:30;;;;;;;10.90;10.10;;;;;;;;;;5004219;28;20531;-74
2023/10/04 13:13:55;;;;;;;11.60;10.70;;;;;;;;;;5006764;28;20167;-74
2023/10/04 13:16:21;;;;;;;10.52;9.73;;;;;;;;;;5005515;28;20058;-74
2023/10/04 13:18:48;;;;;;;10.55;9.77;;;;;;;;;;5003369;28;20137;-75
2023/10/04 13:21:15;;;;;;;10.75;9.75;;;;;;;;;;4993995;28;20503;-75
2023/10/04 13:23:41;;;;;;;11.07;10.07;;;;;;;;;;5003546;28;20735;-74
2023/10/04 13:26:08;;;;;;;10.82;10.02;;;;;;;;;;5002406;28;20529;-75
2023/10/04 13:28:33;;;;;;;13.50;10.32;;;;;;;;;;5001598;28;20045;-74
2023/10/04 13:31:00;;;;;;;10.55;9.65;;;;;;;;;;5005700;28;20042;-74
2023/10/04 13:33:28;;;;;;;11.00;10.10;;;;;;;;;;5002213;28;20549;-74
2023/10/04 13:35:54;;;;;;;10.18;9.45;;;;;;;;;;5005509;28;20136;-74
2023/10/04 13:38:20;;;;;;;10.88;9.90;;;;;;;;;;5008016;28;20117;-74
2023/10/04 13:40:47;;;;;;;11.05;10.02;;;;;;;;;;5002659;28;20069;-73
2023/10/04 13:43:13;;;;;;;10.60;9.80;;;;;;;;;;5004665;28;20588;-75
2023/10/04 13:45:39;;;;;;;11.20;10.07;;;;;;;;;;4999466;28;20041;-75
2023/10/04 13:48:11;;;;;;;10.40;9.70;;;;;;;;;;5006577;28;20580;-74
2023/10/04 13:50:42;;;;;;;11.25;10.27;;;;;;;;;;5007415;28;20096;-74
2023/10/04 13:53:10;;;;;;;10.77;9.68;;;;;;;;;;5009490;28;20044;-74
2023/10/04 13:55:36;;;;;;;10.88;10.07;;;;;;;;;;5016266;28;20096;-76
2023/10/04 13:58:02;;;;;;;11.05;10.35;;;;;;;;;;5013102;28;20590;-76
2023/10/04 14:00:28;;;;;;;10.70;9.80;;;;;;;;;;5007200;28;20042;-75
2023/10/04 14:02:55;;;;;;;10.50;9.65;;;;;;;;;;5004108;28;20121;-76
2023/10/04 14:05:25;;;;;;;10.77;9.98;;;;;;;;;;5015972;28;20030;-76
2023/10/04 14:07:51;;;;;;;14.50;10.40;;;;;;;;;;5011122;28;20038;-75
2023/10/04 14:10:24;;;;;;;10.50;9.80;;;;;;;;;;5003500;28;20064;-76
2023/10/04 14:12:55;;;;;;;11.23;10.23;;;;;;;;;;5000538;28;20030;-73
2023/10/04 14:15:23;;;;;;;11.00;10.15;;;;;;;;;;5003389;28;20607;-75
2023/10/04 14:17:49;;;;;;;11.38;10.30;;;;;;;;;;5006774;28;20038;-75
2023/10/04 14:20:16;;;;;;;11.05;10.10;;;;;;;;;;5004211;28;20391;-76
2023/10/04 14:22:45;;;;;;;10.75;10.00;;;;;;;;;;5000170;28;20034;-76
2023/10/04 14:25:11;;;;;;;10.60;9.70;;;;;;;;;;5020307;28;20796;-76
2023/10/04 14:27:38;;;;;;;10.63;9.80;;;;;;;;;;5003618;28;20042;-75
2023/10/04 14:30:08;;;;;;;11.23;10.30;;;;;;;;;;5007413;28;20483;-75
2023/10/04 14:32:34;;;;;;;10.88;10.18;;;;;;;;;;5001032;28;20040;-75
2023/10/04 14:35:00;;;;;;;10.77;9.75;;;;;;;;;;5005201;28;20542;-75
2023/10/04 14:37:26;;;;;;;10.20;9.50;;;;;;;;;;4998372;28;20037;-75
2023/10/04 14:39:57;;;;;;;10.32;9.52;;;;;;;;;;5006305;28;20120;-76